createdAt,value
2018-03-21T00:01:24.344Z,41.30
2018-03-21T00:03:51.741Z,44.03
2018-03-21T00:06:19.136Z,49.90
2018-03-21T00:08:46.584Z,39.95
2018-03-21T00:11:14.009Z,41.65
2018-03-21T00:13:41.408Z,47.60
2018-03-21T00:16:08.837Z,50.40
2018-03-21T00:18:36.235Z,51.17
2018-03-21T00:21:03.633Z,46.88
2018-03-21T00:23:31.040Z,48.45
2018-03-21T00:25:58.436Z,53.17
2018-03-21T00:28:25.832Z,47.35
2018-03-21T00:30:53.239Z,50.15
2018-03-21T00:33:20.637Z,49.15
2018-03-21T00:35:48.032Z,56.55
2018-03-21T00:38:15.444Z,53.38
2018-03-21T00:40:42.848Z,55.65
2018-03-21T00:43:10.248Z,51.17
2018-03-21T00:45:37.660Z,44.65
2018-03-21T00:48:05.056Z,49.90
2018-03-21T00:50:32.452Z,49.30
2018-03-21T00:52:59.869Z,55.72
2018-03-21T00:55:27.343Z,45.00
2018-03-21T00:57:54.743Z,41.17
2018-03-21T01:00:23.088Z,44.55
2018-03-21T01:02:50.483Z,44.63
2018-03-21T01:05:17.884Z,42.28
2018-03-21T01:07:45.296Z,39.15
2018-03-21T01:10:12.696Z,43.95
2018-03-21T01:12:40.096Z,41.92
2018-03-21T01:15:07.523Z,38.10
2018-03-21T01:17:34.917Z,47.30
2018-03-21T01:20:02.321Z,46.58
2018-03-21T01:22:29.727Z,40.47
2018-03-21T01:24:57.139Z,42.75
2018-03-21T01:27:24.549Z,38.40
2018-03-21T01:29:51.967Z,42.28
2018-03-21T01:32:19.368Z,40.12
2018-03-21T01:34:46.790Z,43.72
2018-03-21T01:37:14.199Z,35.63
2018-03-21T01:39:41.616Z,35.00
2018-03-21T01:42:09.017Z,39.65
2018-03-21T01:44:36.433Z,32.63
2018-03-21T01:47:03.847Z,30.77
2018-03-21T01:49:31.240Z,42.58
2018-03-21T01:51:58.657Z,32.58
2018-03-21T01:54:26.048Z,35.53
2018-03-21T01:56:53.450Z,36.00
2018-03-21T01:59:20.868Z,33.28
2018-03-21T02:01:48.264Z,37.55
2018-03-21T02:04:15.672Z,37.03
2018-03-21T02:06:43.089Z,37.28
2018-03-21T02:09:10.489Z,38.65
2018-03-21T02:11:37.891Z,34.90
2018-03-21T02:14:05.304Z,36.58
2018-03-21T02:16:32.705Z,40.22
2018-03-21T02:19:00.109Z,37.72
2018-03-21T02:21:27.533Z,39.38
2018-03-21T02:23:54.927Z,35.22
2018-03-21T02:26:22.332Z,38.75
2018-03-21T02:28:49.755Z,32.35
2018-03-21T02:31:17.148Z,36.20
2018-03-21T02:33:44.560Z,30.95
2018-03-21T02:36:12.007Z,32.40
2018-03-21T02:38:39.409Z,37.85
2018-03-21T02:41:06.818Z,32.10
2018-03-21T02:43:34.228Z,36.90
2018-03-21T02:46:01.638Z,33.03
2018-03-21T02:48:29.036Z,34.83
2018-03-21T02:50:56.470Z,43.75
2018-03-21T02:53:23.864Z,36.40
2018-03-21T02:55:51.268Z,41.35
2018-03-21T02:58:18.694Z,37.67
2018-03-21T03:00:46.089Z,37.35
2018-03-21T03:03:13.497Z,46.37
2018-03-21T03:05:40.917Z,41.88
2018-03-21T03:08:08.312Z,32.28
2018-03-21T03:10:35.708Z,37.33
2018-03-21T03:13:03.133Z,38.90
2018-03-21T03:15:30.553Z,40.38
2018-03-21T03:17:57.947Z,38.25
2018-03-21T03:20:25.364Z,40.58
2018-03-21T03:22:52.765Z,37.60
2018-03-21T03:25:20.168Z,40.00
2018-03-21T03:27:47.584Z,40.63
2018-03-21T03:30:14.982Z,39.78
2018-03-21T03:32:42.384Z,42.05
2018-03-21T03:35:09.804Z,41.88
2018-03-21T03:37:37.199Z,43.00
2018-03-21T03:40:04.612Z,36.67
2018-03-21T03:42:32.027Z,47.83
2018-03-21T03:44:59.428Z,36.97
2018-03-21T03:47:26.832Z,43.63
2018-03-21T03:49:54.248Z,41.22
2018-03-21T03:52:21.656Z,39.33
2018-03-21T03:54:49.059Z,42.78
2018-03-21T03:57:16.472Z,49.63
2018-03-21T03:59:43.872Z,41.40
2018-03-21T04:02:11.268Z,41.72
2018-03-21T04:04:38.690Z,37.00
2018-03-21T04:07:06.085Z,41.78
2018-03-21T04:09:33.493Z,40.25
2018-03-21T04:12:00.908Z,41.67
2018-03-21T04:14:28.308Z,37.90
2018-03-21T04:16:55.729Z,39.10
2018-03-21T04:19:23.127Z,44.00
2018-03-21T04:21:50.528Z,44.63
2018-03-21T04:24:17.932Z,40.20
2018-03-21T04:26:45.344Z,37.05
2018-03-21T04:29:12.744Z,37.97
2018-03-21T04:31:40.149Z,38.63
2018-03-21T04:34:07.560Z,42.88
2018-03-21T04:36:34.964Z,49.15
2018-03-21T04:39:02.367Z,44.75
2018-03-21T04:41:29.784Z,38.33
2018-03-21T04:43:57.183Z,51.42
2018-03-21T04:46:24.584Z,45.08
2018-03-21T04:48:52.011Z,46.80
2018-03-21T04:51:19.408Z,47.00
2018-03-21T04:53:46.816Z,40.17
2018-03-21T04:56:14.227Z,46.78
2018-03-21T04:58:41.633Z,53.20
2018-03-21T05:01:09.207Z,38.00
2018-03-21T05:03:36.749Z,45.53
2018-03-21T05:06:04.197Z,42.13
2018-03-21T05:08:31.544Z,56.75
2018-03-21T05:10:58.991Z,48.38
2018-03-21T05:13:26.396Z,43.42
2018-03-21T05:15:53.792Z,47.10
2018-03-21T05:18:21.207Z,54.00
2018-03-21T05:20:48.603Z,50.00
2018-03-21T05:23:16.014Z,52.42
2018-03-21T05:25:43.434Z,48.10
2018-03-21T05:28:10.832Z,45.40
2018-03-21T05:30:38.232Z,52.70
2018-03-21T05:33:05.644Z,51.28
2018-03-21T05:35:33.057Z,46.53
2018-03-21T05:38:00.451Z,50.63
2018-03-21T05:40:27.876Z,56.15
2018-03-21T05:42:55.342Z,51.65
2018-03-21T05:45:22.744Z,47.58
2018-03-21T05:47:50.159Z,55.22
2018-03-21T05:50:18.396Z,56.58
2018-03-21T05:52:45.800Z,53.90
2018-03-21T05:55:13.207Z,49.85
2018-03-21T05:57:40.611Z,53.83
2018-03-21T06:00:08.148Z,56.37
2018-03-21T06:02:35.803Z,46.83
2018-03-21T06:05:03.221Z,58.15
2018-03-21T06:07:30.637Z,46.03
2018-03-21T06:09:58.063Z,47.55
2018-03-21T06:12:25.472Z,56.55
2018-03-21T06:14:52.872Z,58.67
2018-03-21T06:17:20.291Z,51.28
2018-03-21T06:19:47.696Z,46.42
2018-03-21T06:22:15.100Z,53.45
2018-03-21T06:24:42.516Z,69.90
2018-03-21T06:27:09.921Z,57.20
2018-03-21T06:29:37.316Z,54.03
2018-03-21T06:32:04.732Z,53.92
2018-03-21T06:34:32.136Z,56.08
2018-03-21T06:36:59.547Z,62.72
2018-03-21T06:39:26.963Z,56.30
2018-03-21T06:41:54.404Z,62.10
2018-03-21T06:44:21.792Z,55.08
2018-03-21T06:46:49.204Z,55.17
2018-03-21T06:49:16.632Z,63.85
2018-03-21T06:51:44.030Z,60.42
2018-03-21T06:54:11.487Z,57.90
2018-03-21T06:56:38.890Z,51.53
2018-03-21T06:59:06.293Z,47.10
2018-03-21T07:01:33.701Z,61.65
2018-03-21T07:04:01.112Z,57.47
2018-03-21T07:06:28.507Z,55.67
2018-03-21T07:08:55.924Z,66.97
2018-03-21T07:11:23.325Z,46.53
2018-03-21T07:14:02.466Z,55.15
2018-03-21T07:16:38.725Z,48.30
2018-03-21T07:19:06.139Z,53.42
2018-03-21T07:21:33.545Z,62.40
2018-03-21T07:24:00.940Z,59.88
2018-03-21T07:26:28.371Z,56.05
2018-03-21T07:28:55.773Z,57.80
2018-03-21T07:31:23.176Z,53.63
2018-03-21T07:33:50.598Z,50.08
2018-03-21T07:36:17.984Z,52.38
2018-03-21T07:38:45.393Z,55.90
2018-03-21T07:41:12.799Z,50.75
2018-03-21T07:43:40.196Z,57.08
2018-03-21T07:46:07.591Z,43.65
2018-03-21T07:48:35.004Z,45.33
2018-03-21T07:51:02.404Z,45.60
2018-03-21T07:53:29.796Z,66.35
2018-03-21T07:55:57.207Z,51.10
2018-03-21T07:58:24.604Z,42.28
2018-03-21T08:00:52.009Z,43.85
2018-03-21T08:03:19.420Z,49.28
2018-03-21T08:05:46.868Z,51.88
2018-03-21T08:08:14.300Z,40.70
2018-03-21T08:10:41.683Z,47.78
2018-03-21T08:13:09.080Z,53.85
2018-03-21T08:15:36.475Z,38.22
2018-03-21T08:18:03.892Z,43.40
2018-03-21T08:20:31.461Z,60.67
2018-03-21T08:22:58.873Z,38.58
2018-03-21T08:25:26.276Z,33.45
2018-03-21T08:27:53.680Z,38.58
2018-03-21T08:30:21.082Z,26.10
2018-03-21T08:32:48.493Z,38.88
2018-03-21T08:35:15.887Z,46.85
2018-03-21T08:37:43.281Z,32.13
2018-03-21T08:40:10.701Z,36.20
2018-03-21T08:42:38.158Z,25.65
2018-03-21T08:45:05.499Z,27.85
2018-03-21T08:47:32.918Z,27.05
2018-03-21T08:50:00.312Z,33.45
2018-03-21T08:52:27.709Z,26.20
2018-03-21T08:54:55.120Z,24.70
2018-03-21T08:57:22.521Z,36.28
2018-03-21T08:59:49.920Z,30.37
2018-03-21T09:02:17.332Z,35.58
2018-03-21T09:04:44.746Z,33.47
2018-03-21T09:07:12.140Z,27.67
2018-03-21T09:09:39.585Z,31.15
2018-03-21T09:12:07.007Z,33.95
2018-03-21T09:14:34.400Z,27.50
2018-03-21T09:17:01.822Z,29.40
2018-03-21T09:19:29.224Z,28.35
2018-03-21T09:21:56.620Z,33.53
2018-03-21T09:24:24.034Z,32.85
2018-03-21T09:26:51.434Z,23.58
2018-03-21T09:29:18.828Z,21.15
2018-03-21T09:31:46.268Z,20.20
2018-03-21T09:34:13.672Z,27.20
2018-03-21T09:36:41.134Z,21.17
2018-03-21T09:39:08.609Z,20.67
2018-03-21T09:41:35.976Z,22.13
2018-03-21T09:44:03.379Z,23.00
2018-03-21T09:46:30.792Z,19.42
2018-03-21T09:48:58.194Z,18.55
2018-03-21T09:51:25.600Z,17.33
2018-03-21T09:53:53.021Z,16.37
2018-03-21T09:56:20.416Z,23.87
2018-03-21T09:58:47.819Z,20.85
2018-03-21T10:01:15.235Z,15.13
2018-03-21T10:03:42.628Z,13.45
2018-03-21T10:06:10.023Z,14.57
2018-03-21T10:08:37.449Z,17.60
2018-03-21T10:11:04.853Z,16.60
2018-03-21T10:13:32.247Z,22.73
2018-03-21T10:15:59.668Z,25.90
2018-03-21T10:18:27.074Z,13.85
2018-03-21T10:20:54.472Z,19.12
2018-03-21T10:23:21.959Z,21.98
2018-03-21T10:25:49.349Z,21.77
2018-03-21T10:28:16.752Z,20.50
2018-03-21T10:30:44.172Z,21.10
2018-03-21T10:33:11.572Z,24.85
2018-03-21T10:35:38.976Z,20.00
2018-03-21T10:38:06.404Z,16.73
2018-03-21T10:40:33.820Z,21.30
2018-03-21T10:43:01.231Z,17.25
2018-03-21T10:45:28.646Z,15.48
2018-03-21T10:47:56.041Z,15.27
2018-03-21T10:50:23.445Z,22.50
2018-03-21T10:52:50.932Z,14.65
2018-03-21T10:55:18.312Z,14.05
2018-03-21T10:57:45.711Z,16.45
2018-03-21T11:00:13.119Z,14.18
2018-03-21T11:02:46.164Z,13.43
2018-03-21T11:05:13.568Z,11.60
2018-03-21T11:07:41.013Z,10.20
2018-03-21T11:10:08.360Z,12.48
2018-03-21T11:12:35.768Z,11.80
2018-03-21T11:15:03.169Z,12.77
2018-03-21T11:17:30.572Z,13.60
2018-03-21T11:19:58.005Z,17.77
2018-03-21T11:22:25.400Z,13.95
2018-03-21T11:24:52.801Z,13.93
2018-03-21T11:27:20.217Z,13.77
2018-03-21T11:29:47.633Z,16.52
2018-03-21T11:32:15.050Z,17.25
2018-03-21T11:34:42.448Z,13.75
2018-03-21T11:37:09.848Z,14.35
2018-03-21T11:39:37.248Z,18.80
2018-03-21T11:42:04.655Z,11.98
2018-03-21T11:44:32.060Z,11.45
2018-03-21T11:46:59.460Z,13.43
2018-03-21T11:49:26.877Z,13.10
2018-03-21T11:51:54.268Z,17.33
2018-03-21T11:54:21.660Z,13.07
2018-03-21T11:56:49.080Z,15.93
2018-03-21T11:59:16.489Z,14.60
2018-03-21T12:01:43.889Z,18.33
2018-03-21T12:04:11.309Z,19.15
2018-03-21T12:06:38.708Z,17.05
2018-03-21T12:09:06.111Z,36.38
2018-03-21T12:11:33.531Z,19.35
2018-03-21T12:14:00.932Z,18.25
2018-03-21T12:16:28.349Z,17.12
2018-03-21T12:18:55.762Z,21.17
2018-03-21T12:21:23.170Z,21.83
2018-03-21T12:23:50.568Z,18.70
2018-03-21T12:26:17.985Z,20.92
2018-03-21T12:28:45.386Z,16.60
2018-03-21T12:31:12.784Z,15.50
2018-03-21T12:33:40.199Z,16.65
2018-03-21T12:36:07.600Z,17.10
2018-03-21T12:38:35.005Z,19.58
2018-03-21T12:41:02.416Z,22.10
2018-03-21T12:43:29.824Z,18.58
2018-03-21T12:45:57.232Z,24.55
2018-03-21T12:48:24.653Z,16.98
2018-03-21T12:50:52.072Z,14.95
2018-03-21T12:53:19.544Z,13.88
2018-03-21T12:55:47.044Z,15.68
2018-03-21T12:58:14.404Z,11.40
2018-03-21T13:00:41.810Z,15.63
2018-03-21T13:03:09.225Z,14.02
2018-03-21T13:05:36.635Z,13.85
2018-03-21T13:08:04.050Z,20.17
2018-03-21T13:10:31.448Z,17.80
2018-03-21T13:12:58.876Z,11.95
2018-03-21T13:15:26.286Z,15.40
2018-03-21T13:17:53.712Z,13.75
2018-03-21T13:20:21.124Z,11.23
2018-03-21T13:22:48.577Z,14.43
2018-03-21T13:25:16.000Z,17.35
2018-03-21T13:27:43.402Z,16.75
2018-03-21T13:30:10.836Z,11.90
2018-03-21T13:32:38.219Z,11.55
2018-03-21T13:35:05.631Z,11.93
2018-03-21T13:37:33.028Z,12.52
2018-03-21T13:40:00.451Z,9.95
2018-03-21T13:42:27.853Z,12.48
2018-03-21T13:44:55.248Z,11.12
2018-03-21T13:47:22.660Z,12.30
2018-03-21T13:49:50.058Z,9.55
2018-03-21T13:52:17.465Z,13.27
2018-03-21T13:54:44.880Z,11.90
2018-03-21T13:57:12.284Z,10.73
2018-03-21T13:59:39.813Z,13.00
2018-03-21T14:02:07.220Z,9.20
2018-03-21T14:04:34.616Z,13.50
2018-03-21T14:07:02.008Z,8.20
2018-03-21T14:09:29.420Z,10.40
2018-03-21T14:11:56.816Z,14.20
2018-03-21T14:14:24.219Z,18.15
2018-03-21T14:16:51.646Z,7.25
2018-03-21T14:19:19.084Z,12.85
2018-03-21T14:21:46.464Z,7.32
2018-03-21T14:24:14.024Z,14.60
2018-03-21T14:26:41.408Z,7.60
2018-03-21T14:29:08.813Z,14.18
2018-03-21T14:31:36.215Z,8.82
2018-03-21T14:34:03.618Z,10.43
2018-03-21T14:36:31.013Z,12.65
2018-03-21T14:38:58.690Z,7.40
2018-03-21T14:41:26.118Z,11.25
2018-03-21T14:43:53.572Z,9.02
2018-03-21T14:46:20.963Z,8.20
2018-03-21T14:48:48.356Z,8.77
2018-03-21T14:51:15.765Z,9.13
2018-03-21T14:53:43.170Z,9.20
2018-03-21T14:56:10.559Z,8.55
2018-03-21T14:58:37.961Z,9.68
2018-03-21T15:01:05.383Z,11.12
2018-03-21T15:03:32.781Z,7.22
2018-03-21T15:06:00.175Z,12.30
2018-03-21T15:08:27.585Z,9.82
2018-03-21T15:10:54.976Z,7.50
2018-03-21T15:13:22.377Z,8.27
2018-03-21T15:15:49.784Z,8.68
2018-03-21T15:18:17.197Z,13.10
2018-03-21T15:20:44.596Z,7.53
2018-03-21T15:23:12.004Z,11.95
2018-03-21T15:25:39.404Z,7.72
2018-03-21T15:28:06.820Z,9.20
2018-03-21T15:30:34.263Z,6.65
2018-03-21T15:33:01.648Z,8.10
2018-03-21T15:35:29.040Z,8.90
2018-03-21T15:37:56.498Z,14.35
2018-03-21T15:40:23.887Z,19.00
2018-03-21T15:42:51.288Z,12.57
2018-03-21T15:45:18.704Z,10.68
2018-03-21T15:47:46.106Z,8.82
2018-03-21T15:50:13.491Z,8.80
2018-03-21T15:52:40.902Z,7.03
2018-03-21T15:55:08.300Z,6.93
2018-03-21T15:57:35.789Z,8.95
2018-03-21T16:00:03.174Z,7.60
2018-03-21T16:02:30.573Z,15.48
2018-03-21T16:04:57.972Z,9.10
2018-03-21T16:07:25.408Z,9.85
2018-03-21T16:09:52.853Z,8.80
2018-03-21T16:12:20.256Z,9.55
2018-03-21T16:14:47.660Z,8.40
2018-03-21T16:17:15.062Z,8.00
2018-03-21T16:19:42.454Z,7.25
2018-03-21T16:22:09.869Z,7.55
2018-03-21T16:24:37.264Z,7.22
2018-03-21T16:27:04.651Z,9.00
2018-03-21T16:29:32.064Z,7.78
2018-03-21T16:31:59.482Z,8.13
2018-03-21T16:34:26.932Z,7.05
2018-03-21T16:36:54.319Z,7.00
2018-03-21T16:39:21.719Z,10.68
2018-03-21T16:41:49.124Z,15.20
2018-03-21T16:44:16.532Z,7.60
2018-03-21T16:46:43.924Z,6.93
2018-03-21T16:49:11.315Z,6.15
2018-03-21T16:51:38.728Z,11.12
2018-03-21T16:54:06.148Z,6.80
2018-03-21T16:56:33.520Z,8.90
2018-03-21T16:59:00.991Z,8.48
2018-03-21T17:01:28.356Z,8.57
2018-03-21T17:03:55.752Z,6.45
2018-03-21T17:06:23.164Z,5.78
2018-03-21T17:08:50.556Z,7.22
2018-03-21T17:11:17.964Z,8.73
2018-03-21T17:13:45.376Z,5.60
2018-03-21T17:16:12.867Z,8.52
2018-03-21T17:18:40.461Z,15.38
2018-03-21T17:21:07.897Z,6.22
2018-03-21T17:23:35.292Z,8.70
2018-03-21T17:26:02.693Z,10.32
2018-03-21T17:28:30.196Z,7.37
2018-03-21T17:30:57.615Z,13.75
2018-03-21T17:33:25.021Z,8.20
2018-03-21T17:35:52.424Z,6.07
2018-03-21T17:38:19.816Z,8.05
2018-03-21T17:40:47.213Z,12.88
2018-03-21T17:43:14.631Z,5.72
2018-03-21T17:45:42.026Z,6.00
2018-03-21T17:48:09.416Z,6.55
2018-03-21T17:50:36.823Z,11.35
2018-03-21T17:53:04.269Z,7.75
2018-03-21T17:55:31.612Z,10.48
2018-03-21T17:57:59.017Z,8.18
2018-03-21T18:00:26.426Z,16.73
2018-03-21T18:02:53.868Z,10.73
2018-03-21T18:05:21.272Z,8.20
2018-03-21T18:07:48.667Z,8.90
2018-03-21T18:10:16.061Z,16.37
2018-03-21T18:12:43.481Z,6.62
2018-03-21T18:15:10.888Z,14.25
2018-03-21T18:17:38.279Z,8.00
2018-03-21T18:20:05.744Z,14.32
2018-03-21T18:22:33.153Z,7.95
2018-03-21T18:25:00.596Z,16.85
2018-03-21T18:27:27.965Z,6.03
2018-03-21T18:29:55.363Z,9.15
2018-03-21T18:32:22.827Z,8.98
2018-03-21T18:34:50.266Z,12.63
2018-03-21T18:37:17.693Z,13.90
2018-03-21T18:39:45.254Z,12.73
2018-03-21T18:42:12.698Z,21.25
2018-03-21T18:44:40.092Z,17.92
2018-03-21T18:47:07.557Z,19.35
2018-03-21T18:49:35.039Z,18.85
2018-03-21T18:52:02.439Z,13.07
2018-03-21T18:54:29.931Z,10.35
2018-03-21T18:56:57.580Z,22.85
2018-03-21T18:59:25.044Z,17.42
2018-03-21T19:01:52.576Z,14.90
2018-03-21T19:04:19.983Z,15.80
2018-03-21T19:06:47.387Z,16.95
2018-03-21T19:09:14.776Z,17.85
2018-03-21T19:11:42.188Z,24.83
2018-03-21T19:14:09.584Z,17.52
2018-03-21T19:16:36.976Z,34.22
2018-03-21T19:19:04.384Z,23.15
2018-03-21T19:21:31.838Z,28.90
2018-03-21T19:23:59.184Z,22.75
2018-03-21T19:26:26.593Z,20.25
2018-03-21T19:28:54.004Z,22.40
2018-03-21T19:31:21.424Z,24.20
2018-03-21T19:33:48.859Z,23.75
2018-03-21T19:36:16.488Z,22.42
2018-03-21T19:38:43.876Z,26.75
2018-03-21T19:41:11.296Z,33.50
2018-03-21T19:43:38.707Z,32.25
2018-03-21T19:46:06.108Z,20.27
2018-03-21T19:48:33.520Z,21.15
2018-03-21T19:51:00.921Z,34.17
2018-03-21T19:53:28.312Z,24.67
2018-03-21T19:55:55.724Z,37.50
2018-03-21T19:58:23.132Z,29.73
2018-03-21T20:00:50.527Z,23.33
2018-03-21T20:03:17.938Z,27.75
2018-03-21T20:05:45.398Z,28.55
2018-03-21T20:08:12.855Z,25.17
2018-03-21T20:10:40.263Z,41.13
2018-03-21T20:13:07.664Z,27.33
2018-03-21T20:15:35.069Z,46.20
2018-03-21T20:18:02.488Z,33.80
2018-03-21T20:20:30.204Z,32.47
2018-03-21T20:22:57.615Z,28.92
2018-03-21T20:25:25.036Z,27.95
2018-03-21T20:27:52.432Z,22.45
2018-03-21T20:30:19.824Z,31.12
2018-03-21T20:32:47.240Z,33.03
2018-03-21T20:35:14.637Z,33.50
2018-03-21T20:37:42.040Z,24.70
2018-03-21T20:40:09.461Z,30.88
2018-03-21T20:42:36.861Z,60.67
2018-03-21T20:45:04.256Z,47.30
2018-03-21T20:47:31.672Z,76.05
2018-03-21T20:49:59.092Z,40.40
2018-03-21T20:52:26.483Z,46.78
2018-03-21T20:54:53.888Z,55.78
2018-03-21T20:57:21.287Z,48.78
2018-03-21T20:59:48.694Z,67.68
2018-03-21T21:02:16.108Z,37.28
2018-03-21T21:04:43.501Z,57.33
2018-03-21T21:07:10.927Z,46.10
2018-03-21T21:09:38.344Z,56.20
2018-03-21T21:12:05.750Z,46.42
2018-03-21T21:14:33.152Z,59.53
2018-03-21T21:17:00.572Z,68.55
2018-03-21T21:19:27.980Z,51.05
2018-03-21T21:21:55.462Z,51.05
2018-03-21T21:24:22.892Z,44.70
2018-03-21T21:26:50.293Z,53.63
2018-03-21T21:29:17.705Z,31.67
2018-03-21T21:31:45.124Z,21.92
2018-03-21T21:34:12.536Z,31.75
2018-03-21T21:36:39.940Z,29.80
2018-03-21T21:39:07.444Z,26.62
2018-03-21T21:41:34.857Z,29.52
2018-03-21T21:44:02.253Z,21.37
2018-03-21T21:46:29.668Z,33.97
2018-03-21T21:48:57.076Z,31.17
2018-03-21T21:51:24.528Z,34.28
2018-03-21T21:53:51.908Z,18.98
2018-03-21T21:56:19.315Z,40.88
2018-03-21T21:58:46.708Z,31.55
2018-03-21T22:01:14.146Z,28.15
2018-03-21T22:03:41.553Z,21.77
2018-03-21T22:06:08.969Z,26.37
2018-03-21T22:08:36.396Z,26.58
2018-03-21T22:11:03.808Z,24.00
2018-03-21T22:13:31.203Z,29.12
2018-03-21T22:15:58.619Z,36.13
2018-03-21T22:18:26.020Z,22.95
2018-03-21T22:20:54.364Z,23.95
2018-03-21T22:23:21.777Z,23.70
2018-03-21T22:25:49.183Z,35.25
2018-03-21T22:28:16.578Z,25.12
2018-03-21T22:30:43.995Z,25.05
2018-03-21T22:33:11.394Z,27.35
2018-03-21T22:35:38.794Z,29.12
2018-03-21T22:38:06.209Z,25.27
2018-03-21T22:40:33.614Z,22.55
2018-03-21T22:43:01.018Z,19.37
2018-03-21T22:45:28.426Z,23.83
2018-03-21T22:47:55.832Z,34.53
2018-03-21T22:50:23.235Z,31.98
2018-03-21T22:52:50.652Z,33.22
2018-03-21T22:55:18.047Z,29.77
2018-03-21T22:57:45.479Z,22.52
2018-03-21T23:00:12.893Z,33.63
2018-03-21T23:02:40.289Z,22.98
2018-03-21T23:05:07.694Z,20.33
2018-03-21T23:07:35.110Z,28.98
2018-03-21T23:10:02.512Z,21.50
2018-03-21T23:12:29.916Z,27.35
2018-03-21T23:14:57.337Z,28.85
2018-03-21T23:17:24.737Z,22.87
2018-03-21T23:19:52.133Z,36.30
2018-03-21T23:22:19.544Z,28.08
2018-03-21T23:24:46.988Z,39.20
2018-03-21T23:27:14.353Z,25.33
2018-03-21T23:29:41.759Z,29.10
2018-03-21T23:32:09.167Z,30.45
2018-03-21T23:34:36.567Z,30.85
2018-03-21T23:37:03.990Z,34.95
2018-03-21T23:39:31.388Z,43.72
2018-03-21T23:41:58.791Z,32.13
2018-03-21T23:44:26.218Z,41.75
2018-03-21T23:46:53.623Z,33.25
2018-03-21T23:49:21.024Z,32.45
2018-03-21T23:51:48.440Z,33.45
2018-03-21T23:54:15.861Z,32.92
2018-03-21T23:56:43.276Z,33.42
2018-03-21T23:59:10.685Z,38.67
